Decoded Metar for YBCS (CAIRNS in AUSTRALIA) (IATA:CNS) | Meteo·Mobile Aviation Weather
aviador You're here:

YBCS Decoded Metar

CAIRNS in AUSTRALIA
Report Time2018-08-22 05:00:00
UTC Time2018-08-22 05:36:35
Flight Rules vfr VFR
Wind060° at 10 kt
W.Decomp.*RWY 12: 3.9 kt HW 9.2 kt LCW
RWY 33: 1.2 kt HW 9.9 kt RCW
W.Rank060° ranks 12
Current wind is above 060° avg. (8.9)
Visibility9999 m
Phenomena:N/A
Clouds:Few 040 Hf
Expected CloudBase > 4,800 ft AGL from Temp-Dew spread
CeilingNone
Temp25°C (ISA +10)
Dew Point13°C (47% RH)
AAT22.3°C
QNH1014 hPa
Density Alt1,355 ft
Elevation23 ft
Report Wrong Elevation
Raw Report
METAR YBCS 220500Z 06010KT 9999 FEW040 25/13 Q1014
NOSIG=

Extra information for YBCS:More info

Metar Taf Metar & Taf Last 4 Metars F.Rules Stats Wind Profile Meteogram Temp Stats Airport Information Weather charts Add Link Nearby VenuesMetar ALERT Operation Metar Decoded Social comments